Time;durP1;ratioP1;P1;durP2;ratioP2;P2;SDS_P1;SDS_P2;PMS_P1;PMS_P2;Temp;Humidity;BMP_temperature;BMP_pressure;BME280_temperature;BME280_humidity;BME280_pressure;Samples;Min_cycle;Max_cycle;Signal;HPM_P1;HPM_P2
2022/09/08 00:02:09;;;;;;;4.43;4.00;;;17.10;99.90;;;;;;5101068;27;20488;-82
2022/09/08 00:04:36;;;;;;;3.33;3.03;;;17.10;99.90;;;;;;5101555;28;20510;-83
2022/09/08 00:07:04;;;;;;;4.40;3.07;;;17.20;99.90;;;;;;5103947;28;20537;-82
2022/09/08 00:09:32;;;;;;;9.43;4.47;;;17.30;99.90;;;;;;5102623;27;20482;-81
2022/09/08 00:12:01;;;;;;;4.93;3.53;;;17.30;99.90;;;;;;5103789;27;20515;-80
2022/09/08 00:14:31;;;;;;;4.80;4.40;;;17.30;99.90;;;;;;5102891;28;20477;-80
2022/09/08 00:16:59;;;;;;;4.20;3.40;;;17.20;99.90;;;;;;5102438;27;20457;-82
2022/09/08 00:19:26;;;;;;;3.80;3.20;;;17.10;99.90;;;;;;5100175;27;20990;-83
2022/09/08 00:21:54;;;;;;;7.03;3.50;;;17.10;99.90;;;;;;5103060;27;20806;-81
2022/09/08 00:24:21;;;;;;;4.63;3.40;;;17.10;99.90;;;;;;5100833;27;20521;-81
2022/09/08 00:26:48;;;;;;;5.03;4.53;;;17.10;99.90;;;;;;5100745;28;20511;-82
2022/09/08 00:29:15;;;;;;;5.57;4.40;;;17.20;99.90;;;;;;5104118;28;20490;-83
2022/09/08 00:31:44;;;;;;;4.00;3.70;;;17.20;99.90;;;;;;5095562;27;20996;-83
2022/09/08 00:34:11;;;;;;;6.10;4.90;;;17.00;99.90;;;;;;5102479;28;20457;-81
2022/09/08 00:36:38;;;;;;;4.43;3.80;;;17.00;99.90;;;;;;5099181;27;20931;-81
2022/09/08 00:39:05;;;;;;;5.90;4.77;;;17.10;99.90;;;;;;5101227;28;20552;-81
2022/09/08 00:41:33;;;;;;;3.93;3.53;;;17.20;99.90;;;;;;5101985;28;21046;-79
2022/09/08 00:44:01;;;;;;;3.47;3.17;;;17.20;99.90;;;;;;5101580;27;20465;-81
2022/09/08 00:46:34;;;;;;;4.20;2.80;;;17.20;99.90;;;;;;5103213;27;20473;-81
2022/09/08 00:49:09;;;;;;;3.83;3.53;;;17.20;99.90;;;;;;5104233;27;20823;-82
2022/09/08 00:51:41;;;;;;;5.00;4.50;;;17.20;99.90;;;;;;5105237;27;20465;-82
2022/09/08 00:54:10;;;;;;;4.00;3.27;;;17.20;99.90;;;;;;5102420;28;20485;-83
2022/09/08 00:56:38;;;;;;;11.43;3.83;;;17.20;99.90;;;;;;5093879;28;20523;-82
2022/09/08 00:59:06;;;;;;;3.43;3.10;;;17.20;99.90;;;;;;5098618;28;20459;-81
2022/09/08 01:01:34;;;;;;;4.40;2.77;;;17.20;99.90;;;;;;5101974;27;20503;-84
2022/09/08 01:04:03;;;;;;;3.13;2.83;;;17.20;99.90;;;;;;5102324;27;21168;-81
2022/09/08 01:15:11;;;;;;;6.33;4.33;;;17.20;99.90;;;;;;5099519;27;20504;-80
2022/09/08 01:17:39;;;;;;;3.27;2.97;;;17.10;99.90;;;;;;5101048;28;20454;-82
2022/09/08 01:20:09;;;;;;;5.80;4.57;;;17.20;99.90;;;;;;5103569;28;20477;-80
2022/09/08 01:23:18;;;;;;;6.03;4.47;;;17.20;99.90;;;;;;5100493;27;20459;-83
2022/09/08 01:26:08;;;;;;;3.70;3.40;;;17.20;99.90;;;;;;5058616;27;21040;-80
2022/09/08 01:28:41;;;;;;;5.27;4.77;;;17.20;99.90;;;;;;5119777;27;20483;-80
2022/09/08 01:31:09;;;;;;;3.97;3.20;;;17.20;99.90;;;;;;5122186;27;21092;-79
2022/09/08 01:33:38;;;;;;;4.20;3.80;;;17.10;99.90;;;;;;5119460;28;20492;-81
2022/09/08 01:36:09;;;;;;;8.20;3.10;;;17.00;99.90;;;;;;5106933;28;20828;-81
2022/09/08 01:38:36;;;;;;;9.87;3.40;;;17.00;99.90;;;;;;5103578;28;21168;-80
2022/09/08 01:41:03;;;;;;;5.93;2.93;;;17.10;99.90;;;;;;5106798;28;20462;-83
2022/09/08 01:43:31;;;;;;;3.97;3.53;;;17.10;99.90;;;;;;5097267;28;20458;-82
2022/09/08 01:45:59;;;;;;;4.63;3.83;;;17.00;99.90;;;;;;5104843;28;20513;-81
2022/09/08 01:48:27;;;;;;;4.80;3.67;;;17.00;99.90;;;;;;5102643;28;20471;-83
2022/09/08 01:51:00;;;;;;;5.53;3.90;;;17.00;99.90;;;;;;5099873;28;20511;-81
2022/09/08 01:53:27;;;;;;;2.97;2.77;;;16.90;99.90;;;;;;5104607;28;20855;-83
2022/09/08 01:55:54;;;;;;;3.80;2.93;;;16.80;99.90;;;;;;5099677;28;20537;-80
2022/09/08 01:58:21;;;;;;;3.53;3.23;;;16.80;99.90;;;;;;5094144;28;20470;-82
2022/09/08 02:00:48;;;;;;;2.97;2.33;;;16.80;99.90;;;;;;5098790;28;20877;-81
2022/09/08 02:03:17;;;;;;;6.90;3.00;;;16.80;99.90;;;;;;5100567;28;20800;-80
2022/09/08 02:05:44;;;;;;;3.60;2.63;;;16.80;99.90;;;;;;5101808;28;20536;-81
2022/09/08 02:08:12;;;;;;;2.43;2.23;;;16.80;99.90;;;;;;5103402;28;20454;-83
2022/09/08 02:10:39;;;;;;;2.63;2.43;;;16.70;99.90;;;;;;5100546;28;20485;-81
2022/09/08 02:13:07;;;;;;;5.60;2.90;;;16.70;99.90;;;;;;5104988;28;21042;-81
2022/09/08 02:15:35;;;;;;;3.83;2.47;;;16.70;99.90;;;;;;5099783;28;20459;-82
2022/09/08 02:18:02;;;;;;;4.87;2.87;;;16.80;99.90;;;;;;5101944;28;20519;-81
2022/09/08 02:20:30;;;;;;;2.63;2.40;;;16.70;99.90;;;;;;5098846;28;20976;-81
2022/09/08 02:22:57;;;;;;;3.50;3.17;;;16.60;99.90;;;;;;5100823;28;20501;-81
2022/09/08 02:25:24;;;;;;;3.10;2.80;;;16.60;99.90;;;;;;5100283;28;20470;-83
2022/09/08 02:27:53;;;;;;;3.07;2.87;;;16.50;99.90;;;;;;5103276;28;20661;-82
2022/09/08 02:30:20;;;;;;;3.90;3.03;;;16.50;99.90;;;;;;5106069;27;20552;-81
2022/09/08 02:32:48;;;;;;;6.23;3.47;;;16.40;99.90;;;;;;5103375;27;20478;-81
2022/09/08 02:35:16;;;;;;;4.33;3.23;;;16.40;99.90;;;;;;5104871;27;21003;-81
2022/09/08 02:37:44;;;;;;;3.23;2.60;;;16.50;99.90;;;;;;5105519;27;20488;-81
2022/09/08 02:40:12;;;;;;;4.63;3.17;;;16.60;99.90;;;;;;5103712;27;20534;-81
2022/09/08 02:42:39;;;;;;;4.17;3.27;;;16.60;99.90;;;;;;5103254;27;20461;-82
2022/09/08 02:45:09;;;;;;;2.93;2.43;;;16.60;99.90;;;;;;5103644;27;20458;-80
2022/09/08 02:47:36;;;;;;;6.83;3.47;;;16.50;99.90;;;;;;5104707;27;20458;-82
2022/09/08 02:50:03;;;;;;;5.23;3.30;;;16.40;99.90;;;;;;5100838;28;20531;-81
2022/09/08 02:52:31;;;;;;;3.27;2.97;;;16.20;99.90;;;;;;5106260;27;20466;-83
2022/09/08 02:55:00;;;;;;;3.00;1.73;;;16.20;99.90;;;;;;5098107;27;20528;-82
2022/09/08 02:57:27;;;;;;;2.53;2.27;;;16.20;99.90;;;;;;5097091;28;20470;-81
2022/09/08 02:59:54;;;;;;;3.53;2.53;;;16.20;99.90;;;;;;5103977;27;20541;-82
2022/09/08 03:02:21;;;;;;;2.87;2.03;;;16.20;99.90;;;;;;5108986;27;20506;-81
2022/09/08 03:04:49;;;;;;;4.37;2.80;;;16.20;99.90;;;;;;5103675;27;21010;-80
2022/09/08 03:07:17;;;;;;;2.13;1.90;;;16.10;99.90;;;;;;5104230;27;20945;-80
2022/09/08 03:09:44;;;;;;;5.03;3.17;;;16.00;99.90;;;;;;5103282;27;20457;-80
2022/09/08 03:12:13;;;;;;;5.70;3.20;;;16.00;99.90;;;;;;5102248;27;20459;-83
2022/09/08 03:14:40;;;;;;;4.47;4.00;;;15.90;99.90;;;;;;5102285;27;20459;-82
2022/09/08 03:17:07;;;;;;;3.80;2.87;;;15.90;99.90;;;;;;5103136;27;20937;-82
2022/09/08 03:19:34;;;;;;;5.93;2.20;;;15.90;99.90;;;;;;5102994;27;20873;-82
2022/09/08 03:22:01;;;;;;;3.03;2.60;;;15.80;99.90;;;;;;5107323;27;20546;-82
2022/09/08 03:24:28;;;;;;;2.00;1.70;;;15.70;99.90;;;;;;5099672;28;20748;-80
2022/09/08 03:26:54;;;;;;;3.30;2.77;;;15.70;99.90;;;;;;5105168;27;20507;-81
2022/09/08 03:29:23;;;;;;;2.20;2.00;;;15.70;99.90;;;;;;5103585;28;20527;-81
2022/09/08 03:31:50;;;;;;;2.40;2.10;;;15.70;99.90;;;;;;5103238;27;20569;-82
2022/09/08 03:34:17;;;;;;;2.97;2.23;;;15.60;99.90;;;;;;5105120;27;20523;-81
2022/09/08 03:36:44;;;;;;;2.90;2.23;;;15.70;99.90;;;;;;5101125;27;20596;-82
2022/09/08 03:39:11;;;;;;;2.43;1.80;;;15.70;99.90;;;;;;5102833;27;20514;-83
2022/09/08 03:41:38;;;;;;;2.50;2.23;;;15.60;99.90;;;;;;5102134;27;20513;-81
2022/09/08 03:44:05;;;;;;;2.33;2.00;;;15.50;99.90;;;;;;5100683;28;20450;-81
2022/09/08 03:46:33;;;;;;;2.30;2.13;;;15.60;99.90;;;;;;5102102;27;20469;-81
2022/09/08 03:49:00;;;;;;;4.40;2.60;;;15.60;99.90;;;;;;5105757;27;21072;-82
2022/09/08 03:51:28;;;;;;;5.57;1.87;;;15.50;99.90;;;;;;5102955;27;21058;-80
2022/09/08 03:54:46;;;;;;;2.27;2.10;;;15.50;99.90;;;;;;5100622;27;20451;-82
2022/09/08 03:56:45;;;;;;;2.90;2.70;;;15.40;99.90;;;;;;5093943;27;20458;-81
2022/09/08 03:59:13;;;;;;;9.07;1.70;;;15.40;99.90;;;;;;5102988;28;20642;-81
2022/09/08 04:01:41;;;;;;;4.20;2.43;;;15.40;99.90;;;;;;5106284;27;20462;-82
2022/09/08 04:04:08;;;;;;;3.00;2.80;;;15.30;99.90;;;;;;5101311;27;21188;-81
2022/09/08 04:06:35;;;;;;;2.43;2.20;;;15.30;99.90;;;;;;5100317;27;20507;-83
2022/09/08 04:09:02;;;;;;;2.30;2.10;;;15.20;99.90;;;;;;5097108;27;20469;-80
2022/09/08 04:11:29;;;;;;;5.20;2.47;;;15.20;99.90;;;;;;5098370;27;20481;-80
2022/09/08 04:13:56;;;;;;;3.10;2.37;;;15.10;99.90;;;;;;5104506;27;20472;-81
2022/09/08 04:16:24;;;;;;;3.60;2.80;;;15.20;99.90;;;;;;5102298;27;20469;-80
2022/09/08 04:18:52;;;;;;;2.27;1.87;;;15.20;99.90;;;;;;5104875;27;20458;-80
2022/09/08 04:21:19;;;;;;;3.10;2.80;;;15.30;99.90;;;;;;5098358;27;20472;-83
2022/09/08 04:23:46;;;;;;;3.67;3.17;;;15.40;99.90;;;;;;5104238;27;20474;-82
2022/09/08 04:26:14;;;;;;;2.60;2.40;;;15.30;99.90;;;;;;5101548;27;20473;-82
2022/09/08 04:28:42;;;;;;;8.27;2.77;;;15.40;99.90;;;;;;5100179;27;20565;-83
2022/09/08 04:31:12;;;;;;;2.23;2.03;;;15.30;99.90;;;;;;5112823;27;20545;-81
2022/09/08 04:33:40;;;;;;;2.50;2.30;;;15.40;99.90;;;;;;5124381;27;20520;-81
2022/09/08 04:36:10;;;;;;;4.63;3.57;;;15.40;99.90;;;;;;5121561;27;20515;-80
2022/09/08 04:38:37;;;;;;;3.63;2.87;;;15.30;99.90;;;;;;5121688;28;20473;-82
2022/09/08 04:41:04;;;;;;;7.30;3.03;;;15.20;99.90;;;;;;5105542;28;20461;-80
2022/09/08 04:43:32;;;;;;;2.80;2.47;;;15.30;99.90;;;;;;5105211;27;20463;-81
2022/09/08 04:46:02;;;;;;;3.13;2.83;;;15.30;99.90;;;;;;5100570;27;20473;-82
2022/09/08 04:48:31;;;;;;;3.63;3.33;;;15.20;99.90;;;;;;5105220;27;20457;-81
2022/09/08 04:50:58;;;;;;;4.07;3.67;;;15.30;99.90;;;;;;5108118;27;20488;-83
2022/09/08 04:53:27;;;;;;;3.80;3.50;;;15.20;99.90;;;;;;5111621;27;20468;-80
2022/09/08 04:55:54;;;;;;;6.87;3.30;;;15.30;99.90;;;;;;5112144;27;21103;-79
2022/09/08 04:58:21;;;;;;;3.07;2.77;;;15.40;99.90;;;;;;5104587;27;20534;-81
2022/09/08 05:00:49;;;;;;;2.80;2.60;;;15.70;99.90;;;;;;5099718;28;20512;-79
2022/09/08 05:03:16;;;;;;;2.97;2.77;;;15.60;99.90;;;;;;5104148;27;20635;-81
2022/09/08 05:05:43;;;;;;;4.97;2.37;;;15.60;99.90;;;;;;5113233;27;21043;-80
2022/09/08 05:08:10;;;;;;;2.73;2.53;;;15.80;99.90;;;;;;5104314;27;20460;-80
2022/09/08 05:10:39;;;;;;;3.20;3.00;;;15.80;99.90;;;;;;5089773;28;20477;-80
2022/09/08 05:13:06;;;;;;;3.30;3.00;;;15.80;99.90;;;;;;5102531;27;20907;-80
2022/09/08 05:15:33;;;;;;;4.40;4.03;;;15.60;99.90;;;;;;5096382;27;20533;-80
2022/09/08 05:18:00;;;;;;;7.67;4.83;;;15.50;99.90;;;;;;5108434;27;20922;-80
2022/09/08 05:20:27;;;;;;;6.63;4.80;;;15.60;99.90;;;;;;5102986;27;21031;-79
2022/09/08 05:22:54;;;;;;;5.77;4.63;;;15.60;99.90;;;;;;5102452;27;21103;-82
2022/09/08 05:25:21;;;;;;;17.57;5.07;;;15.60;99.90;;;;;;5096847;27;20475;-80
2022/09/08 05:27:50;;;;;;;8.27;5.83;;;15.70;99.90;;;;;;5102086;27;20537;-81
2022/09/08 05:30:17;;;;;;;11.50;7.77;;;15.80;99.90;;;;;;5098770;27;20469;-83
2022/09/08 05:32:45;;;;;;;12.10;7.17;;;15.80;99.90;;;;;;5099131;28;20580;-82
2022/09/08 05:35:12;;;;;;;14.93;7.60;;;15.90;99.90;;;;;;5102495;28;20465;-82
2022/09/08 05:37:39;;;;;;;10.17;7.23;;;15.90;99.90;;;;;;5089413;28;20460;-82
2022/09/08 05:40:07;;;;;;;12.60;7.73;;;16.00;99.90;;;;;;5098840;28;20566;-78
2022/09/08 05:42:34;;;;;;;13.93;8.90;;;16.00;99.90;;;;;;5103568;28;20582;-80
2022/09/08 05:45:03;;;;;;;13.03;8.50;;;15.90;99.90;;;;;;5100552;28;20514;-80
2022/09/08 05:47:30;;;;;;;9.10;8.17;;;16.10;99.90;;;;;;5098635;28;20495;-80
2022/09/08 05:49:57;;;;;;;10.33;8.03;;;16.00;99.90;;;;;;5095182;28;20478;-79
2022/09/08 05:52:24;;;;;;;11.70;7.47;;;16.20;99.90;;;;;;5097600;28;21191;-81
2022/09/08 05:54:51;;;;;;;9.60;8.50;;;16.30;99.90;;;;;;5102775;28;20950;-81
2022/09/08 05:57:18;;;;;;;15.00;9.07;;;16.40;99.90;;;;;;5095421;28;21017;-81
2022/09/08 05:59:45;;;;;;;12.37;9.03;;;16.40;99.90;;;;;;5100165;28;20462;-81
2022/09/08 06:02:13;;;;;;;15.50;10.43;;;16.50;99.90;;;;;;5097217;28;20531;-82
2022/09/08 06:04:41;;;;;;;14.80;9.20;;;16.50;99.90;;;;;;5104879;27;20462;-83
2022/09/08 06:07:08;;;;;;;11.00;8.90;;;16.60;99.90;;;;;;5103476;27;20555;-82
2022/09/08 06:09:35;;;;;;;14.43;9.20;;;16.70;99.90;;;;;;5104163;27;21081;-84
2022/09/08 06:12:03;;;;;;;13.80;9.30;;;16.90;99.90;;;;;;5106733;27;20552;-80
2022/09/08 06:14:30;;;;;;;15.17;10.20;;;17.00;99.90;;;;;;5100123;27;20553;-82
2022/09/08 06:16:57;;;;;;;13.53;9.63;;;17.00;99.90;;;;;;5100513;28;20583;-80
2022/09/08 06:19:25;;;;;;;13.40;10.00;;;17.20;99.90;;;;;;5106766;27;20465;-81
2022/09/08 06:21:52;;;;;;;13.83;10.50;;;17.40;99.90;;;;;;5109651;27;20470;-82
2022/09/08 06:24:19;;;;;;;14.47;10.20;;;17.60;99.90;;;;;;5094944;27;20462;-82
2022/09/08 06:27:07;;;;;;;11.70;9.13;;;17.50;99.90;;;;;;5116624;27;20528;-82
2022/09/08 06:29:51;;;;;;;12.90;8.50;;;17.80;99.90;;;;;;5104715;27;20541;-81
2022/09/08 06:32:27;;;;;;;11.23;7.87;;;18.10;99.90;;;;;;5103534;27;20490;-81
2022/09/08 06:35:01;;;;;;;9.23;6.70;;;18.20;99.90;;;;;;5107801;27;20457;-80
2022/09/08 06:37:33;;;;;;;9.53;6.90;;;18.20;99.90;;;;;;5101342;27;20458;-80
2022/09/08 06:40:06;;;;;;;7.57;6.80;;;18.40;99.90;;;;;;5085635;27;20501;-81
2022/09/08 06:42:40;;;;;;;6.90;5.87;;;18.60;99.90;;;;;;5088434;27;21158;-85
2022/09/08 06:45:15;;;;;;;9.97;6.47;;;18.70;99.90;;;;;;5084278;27;21478;-86
2022/09/08 06:47:48;;;;;;;8.67;7.27;;;18.90;99.90;;;;;;5083427;27;20465;-85
2022/09/08 06:50:17;;;;;;;8.63;7.70;;;19.10;99.90;;;;;;5088365;27;20960;-87
2022/09/08 06:52:47;;;;;;;9.73;7.97;;;19.60;99.90;;;;;;5083691;27;21182;-86
2022/09/08 06:55:24;;;;;;;16.77;11.00;;;19.80;99.90;;;;;;5087781;27;20461;-85
2022/09/08 06:58:05;;;;;;;15.50;10.50;;;19.70;99.90;;;;;;5089092;27;20463;-92
2022/09/08 07:00:39;;;;;;;14.57;8.00;;;19.70;99.90;;;;;;5085838;27;20470;-86
2022/09/08 07:03:15;;;;;;;7.87;7.00;;;19.80;99.90;;;;;;5094862;27;20885;-87
2022/09/08 07:05:57;;;;;;;8.87;6.50;;;19.80;99.90;;;;;;5098590;27;20499;-89
2022/09/08 07:08:45;;;;;;;8.13;5.43;;;19.80;99.90;;;;;;5096766;27;20558;-88
2022/09/08 07:11:25;;;;;;;4.77;4.17;;;19.70;99.90;;;;;;5105581;27;20453;-88
2022/09/08 07:14:02;;;;;;;5.90;4.40;;;19.80;99.90;;;;;;5107323;27;20536;-87
2022/09/08 07:16:37;;;;;;;3.93;3.63;;;19.90;99.90;;;;;;5104203;27;20511;-85
2022/09/08 07:19:11;;;;;;;4.80;4.37;;;20.10;99.90;;;;;;5094450;27;20519;-83
2022/09/08 07:21:51;;;;;;;5.00;4.17;;;20.30;99.90;;;;;;5101012;27;20575;-85
2022/09/08 07:24:22;;;;;;;5.77;3.67;;;20.40;99.90;;;;;;5096489;27;20457;-83
2022/09/08 07:26:55;;;;;;;5.07;4.53;;;20.60;99.90;;;;;;5101569;27;20515;-85
2022/09/08 07:29:26;;;;;;;4.57;3.67;;;20.70;99.90;;;;;;5098395;27;20489;-85
2022/09/08 07:31:54;;;;;;;5.07;3.50;;;20.70;99.90;;;;;;5112275;27;20490;-84
2022/09/08 07:34:23;;;;;;;4.93;4.53;;;21.00;99.90;;;;;;5103896;28;20446;-87
2022/09/08 07:37:01;;;;;;;5.40;3.83;;;21.20;99.90;;;;;;5117512;27;20959;-84
2022/09/08 07:39:37;;;;;;;2.97;2.77;;;21.30;99.90;;;;;;5120245;27;20478;-82
2022/09/08 07:42:06;;;;;;;3.83;3.43;;;21.40;99.90;;;;;;5123170;28;20495;-83
2022/09/08 07:44:34;;;;;;;5.27;3.70;;;21.40;99.90;;;;;;5097652;28;20982;-84
2022/09/08 07:47:31;;;;;;;3.93;3.57;;;21.60;99.90;;;;;;5117696;27;20460;-81
2022/09/08 07:50:05;;;;;;;2.80;2.60;;;21.90;99.90;;;;;;5117069;27;20449;-83
2022/09/08 07:52:42;;;;;;;3.67;3.37;;;21.70;99.90;;;;;;5115249;27;20560;-85
2022/09/08 07:55:21;;;;;;;3.40;2.80;;;21.40;99.90;;;;;;5105503;27;20526;-84
2022/09/08 07:57:58;;;;;;;3.20;2.90;;;21.20;99.90;;;;;;5112293;27;20807;-82
2022/09/08 08:00:34;;;;;;;3.27;2.97;;;21.20;99.90;;;;;;5109314;27;20452;-82
2022/09/08 08:03:25;;;;;;;2.43;1.87;;;21.10;99.90;;;;;;5104046;27;20505;-85
2022/09/08 08:05:59;;;;;;;2.87;2.60;;;20.80;99.90;;;;;;5116455;27;20469;-84
2022/09/08 08:08:34;;;;;;;3.20;2.40;;;20.60;99.90;;;;;;5099344;27;20473;-84
2022/09/08 08:11:07;;;;;;;3.53;3.23;;;20.40;99.90;;;;;;5108168;27;20467;-84
2022/09/08 08:14:06;;;;;;;3.93;3.63;;;20.30;99.90;;;;;;5104212;27;20541;-87
2022/09/08 08:16:41;;;;;;;3.40;3.10;;;20.10;99.90;;;;;;5105866;27;20948;-84
2022/09/08 08:19:18;;;;;;;3.50;1.70;;;20.10;99.90;;;;;;5097505;27;20530;-84
2022/09/08 08:21:52;;;;;;;3.70;3.40;;;20.00;99.90;;;;;;5113406;27;20514;-85
2022/09/08 08:24:31;;;;;;;2.53;2.33;;;19.90;99.90;;;;;;5108565;27;20878;-85
2022/09/08 08:27:03;;;;;;;3.10;2.90;;;19.70;99.90;;;;;;5110209;27;20460;-84
2022/09/08 08:29:54;;;;;;;5.17;2.90;;;19.60;99.90;;;;;;5108120;27;20570;-84
2022/09/08 08:32:27;;;;;;;10.00;3.70;;;19.50;99.90;;;;;;5103247;27;20485;-84
2022/09/08 08:34:59;;;;;;;3.33;3.03;;;19.40;99.90;;;;;;5102903;28;20995;-85
2022/09/08 08:37:31;;;;;;;3.00;2.70;;;19.40;99.90;;;;;;5103565;27;20470;-83
2022/09/08 08:40:01;;;;;;;4.50;3.33;;;19.50;99.90;;;;;;5103814;27;20454;-84
2022/09/08 08:42:40;;;;;;;6.13;4.23;;;19.50;99.90;;;;;;5097195;27;20522;-84
2022/09/08 08:45:25;;;;;;;3.00;2.80;;;19.50;99.90;;;;;;5112307;27;20457;-83
2022/09/08 08:48:18;;;;;;;2.70;2.47;;;19.50;99.90;;;;;;5108470;27;20458;-86
2022/09/08 08:51:10;;;;;;;4.10;3.90;;;19.50;99.90;;;;;;5104871;27;21024;-86
2022/09/08 08:54:09;;;;;;;5.67;4.17;;;19.50;99.90;;;;;;5078666;27;20487;-84
2022/09/08 08:56:40;;;;;;;10.13;4.40;;;19.50;99.90;;;;;;5104472;27;20513;-85
2022/09/08 08:59:26;;;;;;;3.93;3.60;;;19.60;99.90;;;;;;5103562;27;20518;-85
2022/09/08 09:02:10;;;;;;;5.57;3.23;;;19.50;99.90;;;;;;5108777;27;20461;-83
2022/09/08 09:04:58;;;;;;;3.77;3.47;;;19.70;99.90;;;;;;5097908;27;20471;-83
2022/09/08 09:08:03;;;;;;;3.40;3.20;;;19.80;99.90;;;;;;5091849;27;20530;-83
2022/09/08 09:10:49;;;;;;;2.37;2.10;;;20.10;99.90;;;;;;5102272;27;20542;-85
2022/09/08 09:13:39;;;;;;;3.03;2.80;;;20.20;99.90;;;;;;5102216;27;20565;-85
2022/09/08 09:16:34;;;;;;;3.17;2.90;;;20.40;99.90;;;;;;5087142;28;20863;-83
2022/09/08 09:19:25;;;;;;;2.30;2.20;;;20.80;99.90;;;;;;5096094;27;20535;-85
2022/09/08 09:21:54;;;;;;;2.73;1.87;;;20.80;99.90;;;;;;5106523;27;20496;-85
2022/09/08 09:24:38;;;;;;;2.03;1.20;;;21.00;99.90;;;;;;5105903;27;20472;-82
2022/09/08 09:27:15;;;;;;;2.33;2.20;;;21.00;99.90;;;;;;5108819;27;20511;-85
2022/09/08 09:29:44;;;;;;;1.43;1.33;;;21.00;99.90;;;;;;5106173;27;20512;-84
2022/09/08 09:32:40;;;;;;;0.70;0.70;;;20.40;99.90;;;;;;5107631;27;20566;-84
2022/09/08 09:35:39;;;;;;;0.70;0.60;;;20.20;99.90;;;;;;5093335;28;20443;-82
2022/09/08 09:38:40;;;;;;;1.23;0.80;;;20.00;99.90;;;;;;5108452;27;20555;-84
2022/09/08 09:41:31;;;;;;;0.50;0.50;;;20.00;99.90;;;;;;5112527;28;20461;-84
2022/09/08 09:44:39;;;;;;;0.73;0.50;;;20.00;99.90;;;;;;5098257;27;20525;-83
2022/09/08 09:47:36;;;;;;;0.73;0.50;;;20.10;99.90;;;;;;5064990;28;20946;-83
2022/09/08 09:50:30;;;;;;;0.70;0.50;;;20.00;99.90;;;;;;5095183;28;20520;-83
2022/09/08 09:53:09;;;;;;;0.50;0.40;;;19.90;99.90;;;;;;5097549;28;20891;-83
2022/09/08 09:56:02;;;;;;;0.97;0.30;;;19.70;99.90;;;;;;5109624;28;20544;-83
2022/09/08 09:58:53;;;;;;;0.60;0.50;;;19.50;99.90;;;;;;5091003;28;20581;-82
2022/09/08 10:01:52;;;;;;;0.50;0.40;;;19.30;99.90;;;;;;5086536;28;20453;-83
2022/09/08 10:05:10;;;;;;;0.40;0.30;;;19.20;99.90;;;;;;5098815;28;21182;-82
2022/09/08 10:08:00;;;;;;;1.50;1.17;;;19.10;99.90;;;;;;5093525;28;20455;-83
2022/09/08 10:10:50;;;;;;;0.40;0.30;;;18.90;99.90;;;;;;5098081;28;20458;-83
2022/09/08 10:14:10;;;;;;;0.43;0.37;;;18.80;99.90;;;;;;5103874;28;20539;-82
2022/09/08 10:17:12;;;;;;;1.77;0.30;;;18.60;99.90;;;;;;5059915;28;20483;-81
2022/09/08 10:20:20;;;;;;;0.40;0.30;;;18.40;99.90;;;;;;5103546;28;20506;-84
2022/09/08 10:23:15;;;;;;;0.40;0.30;;;18.40;99.90;;;;;;5094704;28;20545;-84
2022/09/08 10:26:11;;;;;;;2.47;0.30;;;18.30;99.90;;;;;;5111812;28;20549;-83
2022/09/08 10:29:01;;;;;;;0.40;0.30;;;18.30;99.90;;;;;;5103523;28;20551;-82
2022/09/08 10:32:10;;;;;;;0.40;0.30;;;18.30;99.90;;;;;;5103248;28;20767;-81
2022/09/08 10:35:21;;;;;;;0.40;0.30;;;18.40;99.90;;;;;;5078049;28;20441;-85
2022/09/08 10:38:19;;;;;;;0.40;0.40;;;18.40;99.90;;;;;;5100522;28;20462;-82
2022/09/08 10:41:14;;;;;;;1.43;0.57;;;18.50;99.90;;;;;;5101775;28;20491;-84
2022/09/08 10:44:07;;;;;;;0.50;0.40;;;18.50;99.90;;;;;;5113810;27;20474;-82
2022/09/08 10:47:13;;;;;;;0.40;0.40;;;18.60;99.90;;;;;;5112343;28;20459;-81
2022/09/08 10:50:00;;;;;;;0.73;0.40;;;18.60;99.90;;;;;;5101618;27;20456;-81
2022/09/08 10:52:32;;;;;;;0.43;0.40;;;18.70;99.90;;;;;;5103503;27;20840;-80
2022/09/08 10:55:36;;;;;;;0.50;0.40;;;18.70;99.90;;;;;;5106276;27;20565;-82
2022/09/08 10:58:34;;;;;;;0.60;0.40;;;18.70;99.90;;;;;;5101399;27;20488;-81
2022/09/08 11:01:26;;;;;;;0.40;0.40;;;18.70;99.90;;;;;;5098476;28;20451;-82
2022/09/08 11:04:23;;;;;;;0.40;0.37;;;18.60;99.90;;;;;;5099983;27;21248;-81
2022/09/08 11:07:03;;;;;;;0.50;0.40;;;18.50;99.90;;;;;;5098785;27;20538;-81
2022/09/08 11:09:45;;;;;;;0.43;0.43;;;18.40;99.90;;;;;;5099064;27;20496;-84
2022/09/08 11:12:42;;;;;;;0.40;0.30;;;18.50;99.90;;;;;;5099701;27;20478;-81
2022/09/08 11:15:43;;;;;;;0.50;0.40;;;18.50;99.90;;;;;;5099904;27;20447;-84
2022/09/08 11:18:30;;;;;;;0.57;0.50;;;18.60;99.90;;;;;;5100566;27;21088;-81
2022/09/08 11:21:03;;;;;;;0.50;0.40;;;18.60;99.90;;;;;;5097235;27;20470;-82
2022/09/08 11:23:42;;;;;;;1.87;0.57;;;18.50;99.90;;;;;;5098307;27;20520;-82
2022/09/08 11:26:30;;;;;;;1.23;0.60;;;18.40;99.90;;;;;;5104464;27;20461;-84
2022/09/08 11:29:05;;;;;;;0.47;0.47;;;18.30;99.90;;;;;;5100454;27;21231;-82
2022/09/08 11:31:49;;;;;;;0.50;0.50;;;18.40;99.90;;;;;;5098407;27;20516;-82
2022/09/08 11:34:42;;;;;;;0.80;0.60;;;18.30;99.90;;;;;;5100853;27;20485;-81
2022/09/08 11:37:32;;;;;;;1.90;0.60;;;18.40;99.90;;;;;;5099195;27;20461;-81
2022/09/08 11:40:31;;;;;;;0.73;0.57;;;18.30;99.90;;;;;;5103298;27;20497;-83
2022/09/08 11:43:24;;;;;;;0.53;0.50;;;18.20;99.90;;;;;;5096885;28;20470;-82
2022/09/08 11:46:12;;;;;;;0.50;0.50;;;17.90;99.90;;;;;;5102528;27;21022;-81
2022/09/08 11:49:22;;;;;;;0.80;0.40;;;17.70;99.90;;;;;;5096984;27;20462;-80
2022/09/08 11:52:04;;;;;;;0.50;0.50;;;17.60;99.90;;;;;;5108327;27;20468;-82
2022/09/08 11:54:56;;;;;;;0.80;0.53;;;17.60;99.90;;;;;;5100336;27;20474;-82
2022/09/08 11:57:49;;;;;;;0.67;0.40;;;17.60;99.90;;;;;;5098773;27;20447;-82
2022/09/08 12:00:42;;;;;;;0.50;0.50;;;17.60;99.90;;;;;;5101205;27;20562;-80
2022/09/08 12:03:40;;;;;;;0.50;0.40;;;17.50;99.90;;;;;;5105332;27;20527;-82
2022/09/08 12:06:35;;;;;;;0.50;0.40;;;17.30;99.90;;;;;;5094324;28;20474;-79
2022/09/08 12:09:30;;;;;;;0.50;0.40;;;17.20;99.90;;;;;;5098188;27;20515;-81
2022/09/08 12:12:28;;;;;;;0.70;0.47;;;17.20;99.90;;;;;;5075095;27;20435;-79
2022/09/08 12:15:14;;;;;;;1.60;0.40;;;17.10;99.90;;;;;;5083110;28;20466;-83
2022/09/08 12:17:59;;;;;;;0.40;0.33;;;17.10;99.90;;;;;;5111169;27;20465;-80
2022/09/08 12:20:40;;;;;;;0.50;0.40;;;17.20;99.90;;;;;;5106454;27;20992;-80
2022/09/08 12:23:24;;;;;;;0.70;0.37;;;17.40;99.90;;;;;;5099719;27;20482;-80
2022/09/08 12:26:04;;;;;;;0.50;0.40;;;17.50;99.90;;;;;;5103244;27;20465;-82
2022/09/08 12:28:51;;;;;;;0.70;0.50;;;17.70;99.90;;;;;;5101795;27;20492;-81
2022/09/08 12:31:38;;;;;;;2.00;0.40;;;17.70;99.90;;;;;;5100598;27;21067;-84
2022/09/08 12:34:50;;;;;;;0.50;0.40;;;17.60;99.90;;;;;;5102830;27;20524;-80
2022/09/08 12:37:24;;;;;;;0.50;0.40;;;17.60;99.90;;;;;;5104469;27;21434;-81
2022/09/08 12:40:39;;;;;;;0.50;0.40;;;17.60;99.90;;;;;;5101761;27;20518;-81
2022/09/08 12:43:24;;;;;;;0.70;0.40;;;17.80;99.90;;;;;;5095686;27;20494;-83
2022/09/08 12:46:19;;;;;;;0.43;0.40;;;17.60;99.90;;;;;;5094978;27;20478;-81
2022/09/08 12:48:55;;;;;;;1.07;0.50;;;17.60;99.90;;;;;;5091220;27;21658;-81
2022/09/08 12:51:29;;;;;;;0.87;0.30;;;17.60;99.90;;;;;;5090939;27;20464;-81
2022/09/08 12:54:21;;;;;;;0.50;0.50;;;17.60;99.90;;;;;;5108704;27;20516;-82
2022/09/08 12:57:04;;;;;;;0.40;0.30;;;17.60;99.90;;;;;;5105784;27;20503;-82
2022/09/08 12:59:48;;;;;;;0.67;0.50;;;17.60;99.90;;;;;;5094100;27;20453;-81
2022/09/08 13:02:41;;;;;;;0.87;0.40;;;17.60;99.90;;;;;;5093937;28;20555;-81
2022/09/08 13:05:30;;;;;;;0.50;0.40;;;17.50;99.90;;;;;;5105928;27;20504;-82
2022/09/08 13:08:10;;;;;;;1.00;0.30;;;17.50;99.90;;;;;;5098319;27;20486;-82
2022/09/08 13:10:40;;;;;;;0.40;0.40;;;17.50;99.90;;;;;;5107935;27;20458;-82
2022/09/08 13:13:41;;;;;;;0.47;0.30;;;17.50;99.90;;;;;;5103468;27;20495;-79
2022/09/08 13:16:21;;;;;;;0.47;0.33;;;17.40;99.90;;;;;;5100757;27;21629;-79
2022/09/08 13:19:01;;;;;;;0.40;0.40;;;17.50;99.90;;;;;;5098022;27;20497;-80
2022/09/08 13:21:47;;;;;;;0.30;0.20;;;17.40;99.90;;;;;;5107417;27;20469;-81
2022/09/08 13:24:29;;;;;;;0.40;0.40;;;17.30;99.90;;;;;;5097524;27;20469;-81
2022/09/08 13:27:09;;;;;;;0.40;0.30;;;17.20;99.90;;;;;;5114078;27;20465;-81
2022/09/08 13:30:14;;;;;;;0.40;0.30;;;17.20;99.90;;;;;;5099890;27;20520;-81
2022/09/08 13:33:05;;;;;;;0.30;0.20;;;17.10;99.90;;;;;;5088265;27;20470;-80
2022/09/08 13:35:57;;;;;;;0.50;0.30;;;17.00;99.90;;;;;;5101227;27;20987;-79
2022/09/08 13:39:00;;;;;;;0.40;0.30;;;16.90;99.90;;;;;;5101704;28;20442;-79
2022/09/08 13:41:53;;;;;;;0.40;0.30;;;17.00;99.90;;;;;;5107777;27;20550;-83
2022/09/08 13:44:59;;;;;;;0.60;0.27;;;17.10;99.90;;;;;;5100185;28;20996;-83
2022/09/08 13:47:46;;;;;;;0.40;0.30;;;17.10;99.90;;;;;;5129828;28;20471;-84